Time;durP1;ratioP1;P1;durP2;ratioP2;P2;SDS_P1;SDS_P2;PMS_P1;PMS_P2;Temp;Humidity;BMP_temperature;BMP_pressure;BME280_temperature;BME280_humidity;BME280_pressure;Samples;Min_cycle;Max_cycle;Signal;HPM_P1;HPM_P2
2020/12/12 00:01:48;;;;;;;4.13;1.70;;;;;;;-1.85;72.18;100199.09;1762880;81;21380;-68
2020/12/12 00:04:16;;;;;;;1.37;0.90;;;;;;;-1.84;72.21;100200.81;1788152;80;21021;-69
2020/12/12 00:06:44;;;;;;;0.70;0.70;;;;;;;-1.83;72.21;100192.38;1788041;80;21005;-68
2020/12/12 00:09:12;;;;;;;1.83;1.73;;;;;;;-1.82;72.19;100202.90;1762887;81;21020;-68
2020/12/12 00:11:40;;;;;;;0.83;0.83;;;;;;;-1.81;72.18;100194.47;1788143;80;20998;-68
2020/12/12 00:14:08;;;;;;;0.70;0.70;;;;;;;-1.80;72.15;100197.52;1762932;81;21397;-68
2020/12/12 00:16:36;;;;;;;0.60;0.60;;;;;;;-1.79;72.14;100193.91;1788167;80;21021;-68
2020/12/12 00:19:04;;;;;;;1.40;1.30;;;;;;;-1.79;72.12;100200.08;1763534;79;20975;-68
2020/12/12 00:21:32;;;;;;;1.73;1.33;;;;;;;-1.78;72.06;100196.95;1758525;81;20981;-66
2020/12/12 00:24:00;;;;;;;3.33;1.53;;;;;;;-1.78;72.05;100204.90;1758652;81;21020;-68
2020/12/12 00:26:28;;;;;;;2.50;1.87;;;;;;;-1.79;72.06;100193.45;1781431;79;21656;-68
2020/12/12 00:28:56;;;;;;;0.87;0.87;;;;;;;-1.78;72.04;100188.52;1817002;78;21005;-68
2020/12/12 00:31:24;;;;;;;0.43;0.43;;;;;;;-1.79;72.02;100197.43;1819947;78;21041;-69
2020/12/12 00:33:52;;;;;;;1.27;1.17;;;;;;;-1.79;71.98;100199.20;1819683;78;20942;-68
2020/12/12 00:36:20;;;;;;;1.60;1.50;;;;;;;-1.80;71.88;100186.91;1819834;78;21329;-68
2020/12/12 00:38:47;;;;;;;6.97;1.87;;;;;;;-1.82;71.80;100186.99;1774604;80;23610;-68
2020/12/12 00:41:16;;;;;;;1.60;1.10;;;;;;;-1.82;71.70;100188.80;1797278;79;21052;-69
2020/12/12 00:43:44;;;;;;;2.07;1.53;;;;;;;-1.83;71.60;100185.75;1774712;80;20932;-68
2020/12/12 00:46:13;;;;;;;1.00;1.00;;;;;;;-1.85;71.55;100183.66;1797288;79;20938;-68
2020/12/12 00:48:41;;;;;;;1.17;1.17;;;;;;;-1.87;71.47;100187.72;1774621;80;20976;-68
2020/12/12 00:51:09;;;;;;;2.60;1.07;;;;;;;-1.90;71.36;100181.27;1797287;79;21378;-68
2020/12/12 00:53:37;;;;;;;3.30;1.73;;;;;;;-1.93;71.30;100170.83;1774621;80;21047;-67
2020/12/12 00:56:05;;;;;;;1.70;1.57;;;;;;;-1.96;71.17;100168.38;1797444;79;20941;-68
2020/12/12 00:58:33;;;;;;;4.13;1.13;;;;;;;-1.98;71.15;100177.74;1774613;80;20925;-67
2020/12/12 01:01:01;;;;;;;1.80;1.50;;;;;;;-2.00;71.09;100176.10;1797279;79;21060;-68
2020/12/12 01:03:29;;;;;;;2.23;2.03;;;;;;;-2.04;70.81;100178.55;1774617;80;21180;-69
2020/12/12 01:05:57;;;;;;;2.10;2.00;;;;;;;-2.12;70.55;100184.30;1797252;79;20997;-68
2020/12/12 01:08:26;;;;;;;1.97;1.77;;;;;;;-2.21;70.35;100183.02;1774647;79;21406;-68
2020/12/12 01:10:54;;;;;;;3.03;2.03;;;;;;;-2.27;70.28;100173.23;1797301;79;20942;-68
2020/12/12 01:13:22;;;;;;;1.63;1.53;;;;;;;-2.33;70.21;100177.08;1774513;80;20976;-68
2020/12/12 01:15:50;;;;;;;2.90;1.97;;;;;;;-2.38;70.22;100185.75;1797348;79;21820;-69
2020/12/12 01:18:18;;;;;;;2.70;2.10;;;;;;;-2.42;70.25;100186.39;1752520;80;21010;-67
2020/12/12 01:20:48;;;;;;;2.07;1.93;;;;;;;-2.46;70.38;100177.36;1758773;81;21059;-68
2020/12/12 01:23:16;;;;;;;1.37;1.27;;;;;;;-2.46;70.55;100178.69;1758836;81;21565;-68
2020/12/12 01:25:43;;;;;;;2.30;1.23;;;;;;;-2.45;70.65;100180.41;1740677;82;20999;-68
2020/12/12 01:28:12;;;;;;;7.07;2.53;;;;;;;-2.46;70.58;100168.97;1740649;82;21210;-68
2020/12/12 01:30:40;;;;;;;1.70;1.57;;;;;;;-2.49;70.41;100169.13;1742574;81;21050;-69
2020/12/12 01:33:07;;;;;;;4.43;1.97;;;;;;;-2.55;70.36;100164.16;1743345;82;20992;-69
2020/12/12 01:35:36;;;;;;;2.53;1.83;;;;;;;-2.57;70.45;100167.36;1748607;79;21074;-68
2020/12/12 01:38:04;;;;;;;2.47;1.83;;;;;;;-2.60;70.51;100159.14;1774578;80;20975;-67
2020/12/12 01:40:32;;;;;;;2.33;2.13;;;;;;;-2.64;70.47;100159.37;1774599;80;21204;-68
2020/12/12 01:42:59;;;;;;;4.43;2.73;;;;;;;-2.68;70.38;100164.83;1774493;80;20980;-69
2020/12/12 01:45:27;;;;;;;2.67;1.67;;;;;;;-2.73;70.34;100155.44;1729184;81;21045;-67
2020/12/12 01:47:55;;;;;;;3.53;2.67;;;;;;;-2.79;70.29;100158.43;1754263;81;21012;-67
2020/12/12 01:50:24;;;;;;;7.73;2.23;;;;;;;-2.86;70.30;100157.42;1737030;81;20965;-67
2020/12/12 01:52:53;;;;;;;2.50;1.93;;;;;;;-2.92;70.32;100146.30;1736950;82;21375;-67
2020/12/12 01:55:21;;;;;;;2.00;1.63;;;;;;;-2.98;70.32;100154.59;1736983;82;20966;-68
2020/12/12 01:57:54;;;;;;;2.30;2.07;;;;;;;-3.06;70.42;100145.27;1754643;81;21025;-68
2020/12/12 02:00:23;;;;;;;1.67;1.57;;;;;;;-3.05;70.54;100148.77;1761950;81;21522;-67
2020/12/12 02:02:54;;;;;;;1.67;1.10;;;;;;;-3.07;70.59;100149.31;1761832;81;20933;-68
2020/12/12 02:05:38;;;;;;;2.93;2.37;;;;;;;-3.10;70.61;100150.34;1761802;80;21196;-68
2020/12/12 02:08:17;;;;;;;2.47;2.30;;;;;;;-3.10;70.66;100156.09;1680527;85;21045;-67
2020/12/12 02:10:48;;;;;;;3.10;1.80;;;;;;;-3.12;70.70;100148.70;1691958;84;20965;-68
2020/12/12 02:13:23;;;;;;;6.93;2.93;;;;;;;-3.11;70.72;100147.30;1845457;76;23257;-68
2020/12/12 02:15:51;;;;;;;1.73;1.63;;;;;;;-3.16;70.78;100153.30;1810397;79;20961;-67
2020/12/12 02:18:21;;;;;;;2.90;2.10;;;;;;;-3.15;70.81;100150.18;1811451;78;21991;-68
2020/12/12 02:20:51;;;;;;;1.87;1.77;;;;;;;-3.16;70.88;100151.98;1735757;82;21078;-68
2020/12/12 02:23:20;;;;;;;2.80;1.90;;;;;;;-3.16;70.89;100143.20;1741241;82;21637;-68
2020/12/12 02:25:48;;;;;;;2.63;2.30;;;;;;;-3.18;70.93;100149.89;1758941;81;20984;-68
2020/12/12 02:30:54;;;;;;;5.93;3.70;;;;;;;-3.13;71.05;100132.47;1845445;76;23964;-67
2020/12/12 02:33:22;;;;;;;4.77;2.53;;;;;;;-3.19;71.09;100133.62;1815359;79;20980;-67
2020/12/12 02:35:50;;;;;;;2.67;2.43;;;;;;;-3.19;71.14;100124.84;1815437;79;21360;-68
2020/12/12 02:38:18;;;;;;;3.17;2.67;;;;;;;-3.20;71.20;100131.92;1815326;79;20996;-67
2020/12/12 02:40:46;;;;;;;2.03;1.63;;;;;;;-3.19;71.26;100135.42;1815404;79;20925;-68
2020/12/12 02:43:14;;;;;;;2.77;1.53;;;;;;;-3.18;71.26;100127.41;1815319;79;20964;-67
2020/12/12 02:45:45;;;;;;;1.87;1.70;;;;;;;-3.17;71.27;100122.52;1815262;79;20992;-67
2020/12/12 02:48:14;;;;;;;1.73;1.60;;;;;;;-3.20;71.29;100125.31;1815514;79;21346;-68
2020/12/12 02:50:43;;;;;;;3.60;2.40;;;;;;;-3.19;71.33;100127.00;1815280;79;20972;-68
2020/12/12 02:53:11;;;;;;;2.80;2.10;;;;;;;-3.19;71.32;100121.72;1815441;79;20940;-68
2020/12/12 02:55:39;;;;;;;2.13;2.00;;;;;;;-3.17;71.33;100114.58;1815302;79;21071;-68
2020/12/12 02:58:07;;;;;;;7.73;2.27;;;;;;;-3.18;71.36;100115.98;1815358;79;21019;-68
2020/12/12 03:00:35;;;;;;;3.23;2.40;;;;;;;-3.18;71.39;100118.63;1815410;79;21284;-67
2020/12/12 03:03:03;;;;;;;2.60;1.70;;;;;;;-3.18;71.41;100119.47;1815348;79;20945;-67
2020/12/12 03:05:31;;;;;;;3.03;1.80;;;;;;;-3.19;71.34;100124.84;1815307;79;20998;-67
2020/12/12 03:07:59;;;;;;;1.57;1.47;;;;;;;-3.21;71.32;100112.17;1815276;79;20949;-67
2020/12/12 03:10:27;;;;;;;2.47;2.20;;;;;;;-3.22;71.32;100120.58;1815330;79;21000;-67
2020/12/12 03:12:55;;;;;;;1.93;1.73;;;;;;;-3.22;71.30;100112.64;1815423;79;21202;-67
2020/12/12 03:15:24;;;;;;;2.23;2.03;;;;;;;-3.24;71.31;100111.84;1783747;79;20961;-67
2020/12/12 03:17:52;;;;;;;3.23;2.20;;;;;;;-3.27;71.27;100109.39;1815376;79;20964;-67
2020/12/12 03:20:20;;;;;;;2.83;1.97;;;;;;;-3.29;71.25;100108.14;1784494;78;21007;-68
2020/12/12 03:22:48;;;;;;;1.80;1.67;;;;;;;-3.30;71.28;100107.74;1735926;82;21060;-67
2020/12/12 03:25:17;;;;;;;3.43;2.63;;;;;;;-3.32;71.27;100106.13;1741141;82;21382;-68
2020/12/12 03:27:45;;;;;;;2.90;2.03;;;;;;;-3.32;71.29;100104.81;1758951;81;20949;-68
2020/12/12 03:30:13;;;;;;;3.07;2.40;;;;;;;-3.33;71.29;100104.41;1740444;79;20944;-68
2020/12/12 03:32:41;;;;;;;3.70;2.10;;;;;;;-3.35;71.30;100108.45;1744466;82;21000;-68
2020/12/12 03:35:09;;;;;;;2.40;2.00;;;;;;;-3.37;71.32;100106.36;1744474;82;21044;-67
2020/12/12 03:37:37;;;;;;;2.10;2.00;;;;;;;-3.38;71.34;100101.15;1744550;82;21157;-67
2020/12/12 03:40:05;;;;;;;2.27;2.07;;;;;;;-3.41;71.35;100094.25;1744403;82;20948;-67
2020/12/12 03:42:33;;;;;;;2.10;1.83;;;;;;;-3.44;71.43;100093.92;1743927;82;20945;-68
2020/12/12 03:45:01;;;;;;;3.90;2.63;;;;;;;-3.44;71.45;100105.82;1744032;82;21028;-68
2020/12/12 03:47:29;;;;;;;5.57;2.40;;;;;;;-3.45;71.46;100095.35;1743860;82;20977;-68
2020/12/12 03:49:57;;;;;;;6.33;2.77;;;;;;;-3.45;71.50;100089.59;1743978;82;21215;-66
2020/12/12 03:52:24;;;;;;;4.20;2.67;;;;;;;-3.45;71.54;100087.42;1743905;82;21027;-67
2020/12/12 03:54:52;;;;;;;3.20;2.67;;;;;;;-3.45;71.57;100089.59;1744023;82;20980;-68
2020/12/12 03:57:20;;;;;;;2.90;2.13;;;;;;;-3.46;71.57;100090.51;1744005;82;20993;-67
2020/12/12 03:59:48;;;;;;;2.13;1.93;;;;;;;-3.48;71.61;100095.50;1743976;82;21028;-68
2020/12/12 04:02:16;;;;;;;4.47;2.30;;;;;;;-3.50;71.63;100098.22;1743787;82;21196;-67
2020/12/12 04:04:44;;;;;;;3.23;2.30;;;;;;;-3.53;71.62;100082.52;1743996;82;20961;-67
2020/12/12 04:07:13;;;;;;;5.53;3.27;;;;;;;-3.54;71.62;100089.20;1743997;82;20985;-67
2020/12/12 04:09:41;;;;;;;3.70;2.13;;;;;;;-3.54;71.67;100097.13;1743842;82;20969;-67
2020/12/12 04:12:09;;;;;;;5.20;2.40;;;;;;;-3.58;71.64;100095.59;1743998;82;20974;-68
2020/12/12 04:14:36;;;;;;;2.57;2.37;;;;;;;-3.61;71.66;100099.27;1743845;82;21203;-68
2020/12/12 04:17:04;;;;;;;2.53;1.90;;;;;;;-3.63;71.68;100100.66;1745053;80;20992;-68
2020/12/12 04:19:33;;;;;;;4.57;3.00;;;;;;;-3.66;71.74;100102.13;1763386;79;20963;-67
2020/12/12 04:22:01;;;;;;;1.50;1.40;;;;;;;-3.65;71.79;100100.33;1756826;81;21027;-68
2020/12/12 04:24:29;;;;;;;3.07;2.23;;;;;;;-3.68;71.79;100097.39;1757063;81;20987;-67
2020/12/12 04:26:58;;;;;;;3.57;2.40;;;;;;;-3.69;71.84;100091.70;1757043;81;21216;-67
2020/12/12 04:29:25;;;;;;;4.10;1.93;;;;;;;-3.70;71.87;100094.42;1757057;80;21221;-67
2020/12/12 04:31:53;;;;;;;3.93;1.83;;;;;;;-3.71;71.90;100090.94;1759445;81;20929;-68
2020/12/12 04:34:21;;;;;;;1.90;1.73;;;;;;;-3.71;71.96;100083.48;1759486;81;20968;-68
2020/12/12 04:36:49;;;;;;;2.30;1.30;;;;;;;-3.75;72.02;100085.44;1759545;81;20982;-67
2020/12/12 04:39:16;;;;;;;4.43;2.03;;;;;;;-3.75;72.03;100085.88;1759488;81;21378;-68
2020/12/12 04:41:44;;;;;;;3.60;2.57;;;;;;;-3.75;72.07;100080.14;1759255;81;21911;-68
2020/12/12 04:44:12;;;;;;;1.77;1.67;;;;;;;-3.75;72.14;100088.52;1759356;81;21025;-68
2020/12/12 04:46:41;;;;;;;1.40;1.30;;;;;;;-3.74;72.13;100083.63;1759395;80;20984;-67
2020/12/12 04:49:09;;;;;;;2.50;2.30;;;;;;;-3.73;72.15;100081.39;1759472;81;21032;-68
2020/12/12 04:51:37;;;;;;;3.93;2.37;;;;;;;-3.70;72.17;100082.53;1759371;81;21211;-68
2020/12/12 04:54:05;;;;;;;4.07;2.83;;;;;;;-3.68;72.15;100089.94;1759371;81;21984;-68
2020/12/12 04:56:35;;;;;;;2.47;2.27;;;;;;;-3.68;72.09;100082.86;1780386;78;21022;-68
2020/12/12 04:59:04;;;;;;;3.50;2.00;;;;;;;-3.67;71.98;100081.06;1774492;80;20944;-69
2020/12/12 05:01:32;;;;;;;2.50;2.30;;;;;;;-3.69;71.95;100081.14;1797292;79;20993;-69
2020/12/12 05:04:02;;;;;;;2.03;1.73;;;;;;;-3.70;71.92;100074.61;1774652;80;21229;-68
2020/12/12 05:06:30;;;;;;;2.43;2.03;;;;;;;-3.69;71.95;100082.94;1797227;79;21005;-68
2020/12/12 05:08:58;;;;;;;4.77;2.50;;;;;;;-3.69;71.87;100070.56;1774579;80;21609;-67
2020/12/12 05:11:26;;;;;;;2.30;2.10;;;;;;;-3.68;71.84;100075.41;1797282;79;21013;-69
2020/12/12 05:13:54;;;;;;;2.73;2.03;;;;;;;-3.68;71.86;100068.33;1774551;79;20988;-68
2020/12/12 05:16:22;;;;;;;5.67;3.43;;;;;;;-3.69;71.88;100073.69;1797339;79;21206;-68
2020/12/12 05:18:50;;;;;;;2.03;1.90;;;;;;;-3.69;71.92;100075.01;1727165;81;21041;-67
2020/12/12 05:21:18;;;;;;;1.93;1.83;;;;;;;-3.69;71.89;100077.65;1743334;82;21541;-68
2020/12/12 05:23:46;;;;;;;1.93;1.67;;;;;;;-3.69;71.85;100076.33;1716281;82;20996;-68
2020/12/12 05:26:16;;;;;;;3.30;2.40;;;;;;;-3.69;71.89;100073.20;1739468;82;21525;-68
2020/12/12 05:28:45;;;;;;;6.80;3.57;;;;;;;-3.69;71.92;100069.25;1670411;82;21282;-68
2020/12/12 05:31:13;;;;;;;3.73;2.47;;;;;;;-3.67;71.94;100073.98;1705360;82;20946;-68
2020/12/12 05:33:43;;;;;;;2.87;2.43;;;;;;;-3.67;71.95;100065.20;1735346;82;21577;-69
2020/12/12 05:36:11;;;;;;;2.37;2.17;;;;;;;-3.66;71.94;100068.25;1735893;82;21040;-69
2020/12/12 05:38:39;;;;;;;1.87;1.77;;;;;;;-3.65;71.96;100052.77;1717095;83;21051;-68
2020/12/12 05:41:08;;;;;;;2.23;1.83;;;;;;;-3.65;71.97;100062.01;1735874;82;21168;-68
2020/12/12 05:43:36;;;;;;;5.27;3.00;;;;;;;-3.66;71.98;100049.27;1735439;82;21036;-69
2020/12/12 05:46:04;;;;;;;2.40;1.70;;;;;;;-3.65;72.02;100049.67;1691933;82;21025;-68
2020/12/12 05:48:32;;;;;;;5.50;3.43;;;;;;;-3.65;72.00;100052.31;1735385;82;21744;-68
2020/12/12 05:51:00;;;;;;;2.50;2.30;;;;;;;-3.65;72.02;100048.34;1735410;82;21052;-68
2020/12/12 05:53:28;;;;;;;3.90;2.80;;;;;;;-3.64;72.05;100049.20;1735482;82;21210;-68
2020/12/12 05:55:56;;;;;;;2.07;1.87;;;;;;;-3.63;72.06;100038.55;1732648;82;20925;-67
2020/12/12 05:58:24;;;;;;;5.73;2.60;;;;;;;-3.62;72.06;100034.11;1764079;81;20929;-68
2020/12/12 06:00:53;;;;;;;3.97;2.80;;;;;;;-3.61;72.08;100027.90;1765758;81;21177;-70
2020/12/12 06:03:30;;;;;;;1.40;1.33;;;;;;;-3.55;72.26;100026.71;1765784;80;21009;-67
2020/12/12 06:06:04;;;;;;;2.17;1.97;;;;;;;-3.49;72.29;100030.34;1763258;81;21408;-67
2020/12/12 06:08:37;;;;;;;3.67;2.73;;;;;;;-3.47;72.12;100034.63;1673925;85;21736;-66
2020/12/12 06:11:07;;;;;;;4.17;2.52;;;;;;;-3.45;72.03;100027.45;1693654;83;21534;-67
2020/12/12 06:13:37;;;;;;;1.83;1.17;;;;;;;-3.45;72.03;100027.94;1663942;86;21116;-67
2020/12/12 06:16:07;;;;;;;2.07;1.80;;;;;;;-3.45;72.06;100028.78;1693431;84;21008;-68
2020/12/12 06:19:13;;;;;;;7.00;3.47;;;;;;;-3.41;72.10;100027.30;1662948;86;21212;-67
2020/12/12 06:21:46;;;;;;;2.93;2.67;;;;;;;-3.38;72.06;100025.79;1691763;84;21119;-68
2020/12/12 06:24:18;;;;;;;3.73;2.07;;;;;;;-3.38;72.08;100016.09;1662336;86;21049;-66
2020/12/12 06:27:06;;;;;;;2.90;2.60;;;;;;;-3.34;72.07;100023.39;1691792;84;21680;-68
2020/12/12 06:29:45;;;;;;;1.90;1.53;;;;;;;-3.29;72.15;100020.88;1851929;76;23980;-66
2020/12/12 06:32:17;;;;;;;2.65;2.45;;;;;;;-3.30;72.13;100024.44;1782900;80;21069;-69
2020/12/12 06:34:49;;;;;;;1.57;1.47;;;;;;;-3.26;72.13;100023.36;1855337;77;21194;-70
2020/12/12 06:37:29;;;;;;;3.20;1.60;;;;;;;-3.23;72.13;100024.13;1837626;77;21499;-67
2020/12/12 06:40:14;;;;;;;3.00;2.13;;;;;;;-3.12;72.20;100029.19;1845309;76;23547;-68
2020/12/12 06:42:45;;;;;;;3.90;2.23;;;;;;;-3.12;72.10;100036.28;1728040;81;21095;-67
2020/12/12 06:45:27;;;;;;;4.33;3.00;;;;;;;-3.03;72.04;100033.60;1843748;76;23052;-67
2020/12/12 06:47:55;;;;;;;3.30;3.00;;;;;;;-3.05;72.03;100038.97;1814078;79;21011;-67
2020/12/12 06:50:30;;;;;;;2.53;2.27;;;;;;;-3.01;71.99;100035.69;1815348;79;21367;-65
2020/12/12 06:52:56;;;;;;;5.28;3.65;;;;;;;-3.02;71.94;100037.48;1811083;79;21024;-67
2020/12/12 06:55:24;;;;;;;2.97;1.50;;;;;;;-3.01;71.96;100042.30;1815371;79;20944;-66
2020/12/12 06:57:56;;;;;;;1.70;1.53;;;;;;;-3.01;71.99;100043.18;1804070;79;21053;-65
2020/12/12 07:00:32;;;;;;;6.70;3.53;;;;;;;-3.01;71.96;100039.66;1802091;79;20996;-67
2020/12/12 07:03:02;;;;;;;3.20;2.90;;;;;;;-3.01;72.01;100040.53;1808344;78;21251;-66
2020/12/12 07:05:35;;;;;;;3.73;2.17;;;;;;;-2.96;72.15;100046.39;1746845;82;20966;-66
2020/12/12 07:08:07;;;;;;;;;;;;;;;-2.92;72.21;100039.14;1677179;85;21084;-76
2020/12/12 07:10:40;;;;;;;1.33;1.33;;;;;;;-2.92;72.35;100033.84;1695965;84;20329;-74
2020/12/12 07:13:09;;;;;;;7.33;3.03;;;;;;;-2.91;72.48;100044.83;1695863;84;21471;-73
2020/12/12 07:15:37;;;;;;;2.60;2.30;;;;;;;-2.92;72.70;100037.37;1695592;84;21466;-75
2020/12/12 07:18:11;;;;;;;2.80;1.87;;;;;;;-2.91;72.87;100038.22;1696705;84;21334;-74
2020/12/12 07:20:46;;;;;;;3.37;2.80;;;;;;;-2.92;73.06;100039.14;1698399;84;21158;-75
2020/12/12 07:23:21;;;;;;;3.20;2.23;;;;;;;-2.87;73.37;100037.09;1851624;76;23422;-75
2020/12/12 07:25:49;;;;;;;5.77;2.17;;;;;;;-2.91;73.58;100043.03;1777958;80;20928;-74
2020/12/12 07:28:17;;;;;;;2.40;2.27;;;;;;;-2.92;73.71;100041.34;1855115;77;21346;-74
2020/12/12 07:30:45;;;;;;;3.77;2.57;;;;;;;-2.90;73.83;100039.45;1852773;77;20993;-73
2020/12/12 07:33:12;;;;;;;4.03;2.87;;;;;;;-2.88;73.99;100032.76;1833030;77;20930;-73
2020/12/12 07:35:43;;;;;;;3.50;1.83;;;;;;;-2.85;74.10;100043.18;1833128;77;20917;-73
2020/12/12 07:38:12;;;;;;;7.27;3.80;;;;;;;-2.82;74.20;100035.05;1813212;78;20943;-74
2020/12/12 07:40:40;;;;;;;3.43;2.83;;;;;;;-2.81;74.22;100031.95;1814437;79;21206;-73
2020/12/12 07:43:09;;;;;;;2.97;2.50;;;;;;;-2.80;74.37;100024.38;1849213;77;21542;-74
2020/12/12 07:48:24;;;;;;;3.17;2.67;;;;;;;-2.76;74.50;100025.91;1829137;78;21008;-76
2020/12/12 07:50:56;;;;;;;4.00;2.20;;;;;;;-2.77;74.53;100024.22;1826387;77;21037;-73
2020/12/12 07:53:25;;;;;;;2.77;2.07;;;;;;;-2.77;74.72;100020.25;1809785;77;21189;-72
2020/12/12 07:55:58;;;;;;;1.50;1.40;;;;;;;-2.78;74.83;100016.75;1839345;77;21072;-70
2020/12/12 07:58:28;;;;;;;3.65;3.00;;;;;;;-2.75;74.99;100021.01;1779942;79;21154;-72
2020/12/12 08:01:01;;;;;;;2.90;2.60;;;;;;;-2.72;75.21;100013.75;1781474;79;21027;-72
2020/12/12 08:03:30;;;;;;;3.30;2.57;;;;;;;-2.67;75.47;100012.17;1767019;80;20917;-72
2020/12/12 08:06:09;;;;;;;6.00;3.20;;;;;;;-2.59;75.63;100017.02;1784312;78;21327;-73
2020/12/12 08:08:37;;;;;;;4.13;2.60;;;;;;;-2.54;75.73;100013.64;1765762;80;21064;-74
2020/12/12 08:11:06;;;;;;;3.53;2.03;;;;;;;-2.52;75.80;100007.30;1782373;79;20968;-74
2020/12/12 08:13:34;;;;;;;4.97;2.67;;;;;;;-2.52;75.90;100003.33;1766697;80;21052;-73
2020/12/12 08:18:48;;;;;;;2.73;2.03;;;;;;;-2.41;76.31;100001.86;1893734;74;24504;-74
2020/12/12 08:21:19;;;;;;;1.53;1.40;;;;;;;-2.42;76.66;99993.55;1859086;76;20950;-72
2020/12/12 08:23:48;;;;;;;5.60;2.83;;;;;;;-2.40;76.87;99997.80;1867299;76;21411;-73
2020/12/12 08:26:20;;;;;;;4.83;2.90;;;;;;;-2.37;77.03;99989.69;1868416;76;20890;-74
2020/12/12 08:28:48;;;;;;;5.00;2.93;;;;;;;-2.34;77.29;99989.52;1829902;76;20923;-74
2020/12/12 08:31:21;;;;;;;1.53;1.43;;;;;;;-2.33;77.48;99993.00;1822852;78;20962;-73
2020/12/12 08:33:56;;;;;;;2.95;2.05;;;;;;;-2.33;77.61;99991.20;1785653;80;21019;-73
2020/12/12 08:36:28;;;;;;;6.03;3.13;;;;;;;-2.34;77.73;99992.16;1814860;79;22161;-72
2020/12/12 08:38:58;;;;;;;2.43;2.00;;;;;;;-2.35;77.85;99985.15;1774830;80;20922;-74
2020/12/12 08:41:37;;;;;;;3.00;2.73;;;;;;;-2.35;78.00;99982.98;1786532;80;21133;-73
2020/12/12 08:44:05;;;;;;;2.60;2.40;;;;;;;-2.37;78.24;99986.20;1815814;78;21017;-74
2020/12/12 08:46:33;;;;;;;4.40;2.60;;;;;;;-2.38;78.40;99981.34;1813261;78;20973;-74
2020/12/12 08:49:01;;;;;;;1.80;1.70;;;;;;;-2.38;78.61;99974.73;1812225;78;21410;-77
2020/12/12 08:51:30;;;;;;;1.77;1.63;;;;;;;-2.37;78.74;99970.30;1763010;80;21021;-75
2020/12/12 08:53:58;;;;;;;2.10;1.90;;;;;;;-2.37;78.97;99971.63;1819787;78;21007;-75
2020/12/12 08:56:28;;;;;;;2.20;2.00;;;;;;;-2.36;79.23;99972.84;1767161;79;21061;-75
2020/12/12 08:59:02;;;;;;;2.07;1.83;;;;;;;-2.33;79.39;99971.82;1788132;79;20999;-74
2020/12/12 09:01:42;;;;;;;2.53;2.17;;;;;;;-2.31;79.54;99962.83;1789879;78;22367;-76
2020/12/12 09:04:18;;;;;;;2.00;1.90;;;;;;;-2.27;79.75;99954.22;1788133;79;21025;-74
2020/12/12 09:06:58;;;;;;;1.87;1.77;;;;;;;-2.24;80.01;99947.91;1791094;79;21052;-75
2020/12/12 09:09:28;;;;;;;2.23;1.73;;;;;;;-2.25;80.17;99939.56;1793342;79;21368;-74
2020/12/12 09:12:02;;;;;;;3.67;3.37;;;;;;;-2.24;80.32;99946.58;1797882;79;20974;-72
2020/12/12 09:14:32;;;;;;;1.40;1.30;;;;;;;-2.23;80.51;99932.37;1794087;79;21361;-76
2020/12/12 09:17:06;;;;;;;5.97;2.73;;;;;;;-2.19;80.67;99933.92;1791749;79;21088;-77
2020/12/12 09:19:37;;;;;;;3.43;3.13;;;;;;;-2.11;80.91;99933.84;1787365;79;21595;-76
2020/12/12 09:22:09;;;;;;;4.20;2.77;;;;;;;-2.01;81.19;99930.14;1787283;79;20950;-75
2020/12/12 09:24:37;;;;;;;5.50;2.30;;;;;;;-1.94;81.32;99926.16;1784488;79;20990;-72
2020/12/12 09:27:05;;;;;;;2.73;2.47;;;;;;;-1.92;81.43;99924.27;1794725;78;21754;-74
2020/12/12 09:29:33;;;;;;;5.87;3.80;;;;;;;-1.93;81.50;99914.63;1823022;78;21746;-78
2020/12/12 09:32:01;;;;;;;3.57;2.53;;;;;;;-1.92;81.59;99920.30;1812718;78;21155;-74
2020/12/12 09:34:30;;;;;;;4.63;2.57;;;;;;;-1.89;81.80;99921.05;1761790;79;21017;-74
2020/12/12 09:36:58;;;;;;;3.03;2.73;;;;;;;-1.89;81.92;99915.74;1803478;78;21016;-76
2020/12/12 09:39:26;;;;;;;3.67;2.43;;;;;;;-1.88;82.05;99918.79;1771100;79;21681;-72
2020/12/12 09:42:00;;;;;;;3.77;2.57;;;;;;;-1.86;82.20;99912.46;1819420;78;21064;-72
2020/12/12 09:44:28;;;;;;;3.07;2.87;;;;;;;-1.85;82.29;99906.67;1815715;78;21077;-75
2020/12/12 09:46:56;;;;;;;5.70;3.30;;;;;;;-1.82;82.41;99901.20;1787689;79;21436;-75
2020/12/12 09:49:25;;;;;;;4.93;3.23;;;;;;;-1.81;82.53;99894.93;1797956;79;20998;-73
2020/12/12 09:51:53;;;;;;;3.97;2.90;;;;;;;-1.79;82.66;99906.28;1802348;78;22263;-74
2020/12/12 09:54:20;;;;;;;3.17;2.67;;;;;;;-1.79;82.91;99908.48;1822545;78;21547;-72
2020/12/12 09:56:49;;;;;;;5.87;2.77;;;;;;;-1.78;82.99;99910.65;1781226;79;21052;-72
2020/12/12 09:59:18;;;;;;;2.47;2.27;;;;;;;-1.77;83.14;99908.36;1797941;78;21017;-74
2020/12/12 10:01:47;;;;;;;2.43;1.80;;;;;;;-1.74;83.32;99894.92;1793700;80;20977;-73
2020/12/12 10:04:15;;;;;;;2.30;1.87;;;;;;;-1.74;83.42;99897.09;1798853;78;21644;-73
2020/12/12 10:06:45;;;;;;;3.13;2.67;;;;;;;-1.69;83.54;99900.78;1812994;78;20954;-72
2020/12/12 10:09:13;;;;;;;2.43;2.23;;;;;;;-1.64;83.61;99892.56;1776768;79;20989;-69
2020/12/12 10:11:41;;;;;;;4.53;2.70;;;;;;;-1.62;83.71;99885.36;1831307;78;20962;-68
2020/12/12 10:14:11;;;;;;;2.80;2.20;;;;;;;-1.60;83.82;99886.10;1789276;80;21008;-67
2020/12/12 10:16:39;;;;;;;4.60;2.07;;;;;;;-1.57;83.91;99890.73;1766902;80;22330;-67
2020/12/12 10:19:08;;;;;;;2.63;2.43;;;;;;;-1.54;84.01;99894.53;1808891;78;21080;-68
2020/12/12 10:21:36;;;;;;;1.53;1.43;;;;;;;-1.50;84.10;99896.51;1757058;81;21009;-68
2020/12/12 10:24:04;;;;;;;2.43;1.80;;;;;;;-1.47;84.17;99890.14;1761909;80;20930;-69
2020/12/12 10:26:32;;;;;;;2.67;2.37;;;;;;;-1.43;84.24;99894.33;1748459;82;21589;-68
2020/12/12 10:29:00;;;;;;;3.07;2.03;;;;;;;-1.39;84.31;99894.49;1750831;80;22249;-68
2020/12/12 10:31:28;;;;;;;1.93;1.43;;;;;;;-1.35;84.38;99901.30;1750898;81;21002;-69
2020/12/12 10:33:56;;;;;;;1.63;1.53;;;;;;;-1.32;84.41;99898.45;1744928;81;21068;-71
2020/12/12 10:36:26;;;;;;;1.20;1.10;;;;;;;-1.28;84.51;99902.60;1752846;81;21023;-69
2020/12/12 10:38:54;;;;;;;2.70;1.60;;;;;;;-1.19;84.66;99903.36;1747408;81;21634;-70
2020/12/12 10:41:23;;;;;;;1.87;1.77;;;;;;;-1.10;84.77;99901.03;1742804;81;21307;-69
2020/12/12 10:43:51;;;;;;;1.47;1.37;;;;;;;-1.04;84.81;99911.27;1752818;81;21046;-68
2020/12/12 10:46:19;;;;;;;1.50;1.40;;;;;;;-0.99;84.77;99910.50;1741320;81;21061;-65
2020/12/12 10:48:47;;;;;;;1.83;1.73;;;;;;;-0.96;84.75;99914.25;1752569;81;21073;-67
2020/12/12 10:51:16;;;;;;;1.30;1.20;;;;;;;-0.95;84.75;99922.61;1757125;81;20993;-67
2020/12/12 10:53:46;;;;;;;1.07;1.00;;;;;;;-0.93;84.76;99922.02;1759284;81;21195;-68
2020/12/12 10:56:14;;;;;;;3.43;1.70;;;;;;;-0.92;84.72;99922.86;1749121;81;21172;-67
2020/12/12 10:58:42;;;;;;;1.57;1.43;;;;;;;-0.90;84.75;99921.83;1753688;81;20998;-67
2020/12/12 11:01:10;;;;;;;1.07;1.07;;;;;;;-0.85;84.83;99926.81;1753231;81;21017;-67
2020/12/12 11:03:38;;;;;;;2.33;2.03;;;;;;;-0.79;84.91;99922.45;1755808;81;21004;-68
2020/12/12 11:06:06;;;;;;;0.97;0.93;;;;;;;-0.71;84.98;99923.25;1749668;81;21721;-66
2020/12/12 11:08:34;;;;;;;2.70;1.67;;;;;;;-0.64;84.98;99927.20;1749961;81;21034;-66
2020/12/12 11:11:02;;;;;;;1.97;1.80;;;;;;;-0.64;84.98;99923.22;1750630;81;21002;-68
2020/12/12 11:13:30;;;;;;;1.27;1.17;;;;;;;-0.68;84.91;99923.06;1750050;81;20990;-67
2020/12/12 11:15:58;;;;;;;2.40;1.50;;;;;;;-0.70;84.85;99923.16;1749800;81;21057;-68
2020/12/12 11:18:28;;;;;;;1.40;1.30;;;;;;;-0.70;84.85;99920.98;1756556;79;21215;-68
2020/12/12 11:20:56;;;;;;;2.20;1.80;;;;;;;-0.71;84.87;99922.77;1787005;79;20998;-69
2020/12/12 11:23:23;;;;;;;1.67;1.57;;;;;;;-0.71;84.93;99932.55;1787790;79;20918;-69
2020/12/12 11:25:52;;;;;;;1.63;1.47;;;;;;;-0.72;84.98;99930.38;1790969;79;20985;-68
2020/12/12 11:28:20;;;;;;;1.77;1.47;;;;;;;-0.73;85.01;99922.51;1774146;79;21040;-68
2020/12/12 11:30:50;;;;;;;3.50;1.57;;;;;;;-0.72;85.03;99925.55;1786443;79;22326;-69
2020/12/12 11:33:18;;;;;;;1.97;1.70;;;;;;;-0.72;85.09;99920.24;1821952;78;21048;-68
2020/12/12 11:46:31;;;;;;;0.87;0.87;;;;;;;-0.71;85.43;99915.29;1804442;79;21364;-68
2020/12/12 11:49:00;;;;;;;1.73;1.20;;;;;;;-0.71;85.48;99915.29;1808297;79;21040;-67
2020/12/12 11:51:28;;;;;;;1.77;1.67;;;;;;;-0.71;85.56;99917.95;1741807;82;20946;-67
2020/12/12 11:53:56;;;;;;;1.30;1.23;;;;;;;-0.72;85.65;99913.61;1760869;81;21084;-67
2020/12/12 11:56:24;;;;;;;1.27;1.27;;;;;;;-0.72;85.72;99918.92;1752489;81;21017;-69